Time;durP1;ratioP1;P1;durP2;ratioP2;P2;SDS_P1;SDS_P2;PMS_P1;PMS_P2;Temp;Humidity;BMP_temperature;BMP_pressure;BME280_temperature;BME280_humidity;BME280_pressure;Samples;Min_cycle;Max_cycle;Signal;HPM_P1;HPM_P2
2022/05/30 00:01:32;;;;;;;0.30;0.20;;;;;;;9.10;92.94;99788.53;4983037;28;20500;-77
2022/05/30 00:04:05;;;;;;;0.30;0.20;;;;;;;8.94;91.81;99781.97;5012840;28;20452;-76
2022/05/30 00:06:58;;;;;;;0.30;0.20;;;;;;;8.79;93.25;99780.66;5012822;28;20460;-77
2022/05/30 00:09:33;;;;;;;0.30;0.20;;;;;;;8.73;94.63;99787.88;4995839;28;20850;-75
2022/05/30 00:12:06;;;;;;;0.30;0.20;;;;;;;8.87;93.19;99775.09;5012203;28;20556;-76
2022/05/30 00:15:06;;;;;;;0.30;0.20;;;;;;;8.89;93.84;99778.56;5010402;28;20540;-76
2022/05/30 00:17:47;;;;;;;0.30;0.20;;;;;;;8.81;93.05;99770.88;5012545;28;20448;-75
2022/05/30 00:20:22;;;;;;;0.30;0.20;;;;;;;8.83;94.18;99776.97;5012686;28;20476;-75
2022/05/30 00:22:52;;;;;;;0.30;0.20;;;;;;;8.74;97.10;99784.31;4995437;28;20468;-76
2022/05/30 00:25:25;;;;;;;0.40;0.30;;;;;;;8.88;95.55;99777.69;5012183;28;20590;-76
2022/05/30 00:27:51;;;;;;;0.30;0.20;;;;;;;8.87;94.88;99772.44;5012571;28;20460;-75
2022/05/30 00:30:22;;;;;;;0.40;0.40;;;;;;;8.96;94.54;99773.97;5012487;28;20448;-75
2022/05/30 00:33:00;;;;;;;0.30;0.20;;;;;;;8.79;95.63;99767.41;5012523;28;20473;-76
2022/05/30 00:35:34;;;;;;;0.40;0.30;;;;;;;8.83;96.30;99766.38;5012440;28;20471;-75
2022/05/30 00:38:01;;;;;;;0.30;0.20;;;;;;;8.75;96.00;99771.03;5013226;28;20444;-72
2022/05/30 00:40:32;;;;;;;0.30;0.20;;;;;;;8.86;95.41;99768.06;5012296;28;20594;-75
2022/05/30 00:43:33;;;;;;;0.30;0.20;;;;;;;8.73;96.32;99770.22;5012004;28;20974;-74
2022/05/30 00:46:15;;;;;;;0.30;0.20;;;;;;;8.64;96.41;99775.78;4970846;28;20942;-74
2022/05/30 00:49:05;;;;;;;0.33;0.27;;;;;;;8.46;94.63;99763.94;5012363;28;20853;-74
2022/05/30 00:51:41;;;;;;;0.30;0.20;;;;;;;8.01;97.22;99768.69;5001978;28;20552;-72
2022/05/30 00:54:12;;;;;;;0.80;0.40;;;;;;;7.98;97.51;99760.84;4996092;28;20444;-72
2022/05/30 00:57:19;;;;;;;0.40;0.30;;;;;;;7.93;96.95;99762.72;5013514;28;20531;-72
2022/05/30 01:00:05;;;;;;;0.30;0.20;;;;;;;8.09;97.86;99765.84;5013351;28;20460;-72
2022/05/30 01:02:41;;;;;;;0.30;0.20;;;;;;;8.09;97.78;99761.41;4995670;28;20469;-72
2022/05/30 01:08:18;;;;;;;0.30;0.20;;;;;;;8.42;96.48;99764.06;5012247;28;20518;-72
2022/05/30 01:10:50;;;;;;;0.40;0.37;;;;;;;8.31;96.74;99766.97;4999471;28;20445;-72
2022/05/30 01:13:24;;;;;;;0.30;0.20;;;;;;;8.45;95.37;99767.50;5012146;28;21057;-72
2022/05/30 01:15:55;;;;;;;0.50;0.50;;;;;;;8.09;95.50;99765.84;5012522;28;20448;-72
2022/05/30 01:18:54;;;;;;;0.83;0.83;;;;;;;8.29;95.42;99763.50;5012162;28;20536;-72
2022/05/30 01:21:41;;;;;;;0.30;0.20;;;;;;;8.18;96.12;99760.28;5007672;28;20905;-72
2022/05/30 01:24:55;;;;;;;0.30;0.20;;;;;;;8.16;95.89;99764.75;5012459;28;20463;-74
2022/05/30 01:28:11;;;;;;;0.30;0.20;;;;;;;7.86;95.75;99764.66;5008145;28;20460;-72
2022/05/30 01:30:43;;;;;;;0.30;0.20;;;;;;;8.09;93.84;99766.72;5007219;28;20930;-73
2022/05/30 01:33:13;;;;;;;0.30;0.20;;;;;;;8.08;94.01;99761.44;4998812;28;20472;-73
2022/05/30 01:35:45;;;;;;;0.30;0.20;;;;;;;7.67;95.27;99763.38;5016552;28;20992;-74
2022/05/30 01:38:28;;;;;;;0.30;0.20;;;;;;;7.76;95.12;99760.50;5000360;28;20448;-73
2022/05/30 01:41:00;;;;;;;0.30;0.20;;;;;;;7.65;95.83;99751.97;5016809;28;20492;-73
2022/05/30 01:43:40;;;;;;;0.30;0.20;;;;;;;7.61;95.70;99745.03;5014137;28;20484;-71
2022/05/30 01:46:14;;;;;;;0.30;0.20;;;;;;;7.63;95.07;99756.44;5015871;28;20931;-72
2022/05/30 01:49:02;;;;;;;;;;;;;;;;;;;;;
2022/05/30 01:51:38;;;;;;;0.30;0.20;;;;;;;7.67;96.53;99752.81;5005367;28;20796;-73
2022/05/30 01:54:11;;;;;;;0.30;0.20;;;;;;;7.72;94.81;99748.28;5016640;28;20457;-72
2022/05/30 01:56:55;;;;;;;;;;;;;;;;;;;;;
2022/05/30 01:59:24;;;;;;;0.30;0.20;;;;;;;7.62;93.77;99741.47;5016658;28;20887;-73
2022/05/30 02:01:58;;;;;;;0.30;0.20;;;;;;;7.45;94.57;99738.41;5016393;28;21049;-72
2022/05/30 02:04:29;;;;;;;1.17;0.83;;;;;;;7.38;96.17;99727.94;4986615;28;20602;-73
2022/05/30 02:06:57;;;;;;;0.30;0.20;;;;;;;7.39;95.04;99734.09;5016391;28;20480;-73
2022/05/30 02:09:27;;;;;;;0.30;0.20;;;;;;;7.42;94.84;99736.72;5015804;28;20453;-74
2022/05/30 02:12:03;;;;;;;0.30;0.20;;;;;;;7.45;93.89;99739.25;4999390;28;20465;-72
2022/05/30 02:14:37;;;;;;;0.30;0.20;;;;;;;7.33;94.98;99731.63;4999123;28;20448;-72
2022/05/30 02:17:16;;;;;;;0.33;0.23;;;;;;;7.28;94.30;99736.19;5016105;28;20445;-72
2022/05/30 02:19:54;;;;;;;0.30;0.20;;;;;;;7.51;93.96;99728.53;5016035;28;20445;-72
2022/05/30 02:22:45;;;;;;;;;;;;;;;;;;;;;
2022/05/30 02:25:13;;;;;;;0.30;0.20;;;;;;;7.37;93.03;99734.16;5015961;28;20465;-72
2022/05/30 02:27:48;;;;;;;0.30;0.20;;;;;;;7.42;92.72;99734.94;5015571;28;20462;-72
2022/05/30 02:30:24;;;;;;;0.40;0.33;;;;;;;7.31;94.04;99741.38;5002433;28;20448;-72
2022/05/30 02:36:38;;;;;;;0.30;0.20;;;;;;;7.28;93.36;99733.53;4997854;28;20472;-72
2022/05/30 02:38:41;;;;;;;0.30;0.20;;;;;;;6.93;94.95;99722.00;5003677;28;20539;-72
2022/05/30 02:41:11;;;;;;;0.30;0.20;;;;;;;7.10;95.00;99724.25;5015539;28;20619;-73
2022/05/30 02:43:42;;;;;;;0.50;0.50;;;;;;;6.98;97.61;99719.25;5008415;28;20982;-72
2022/05/30 02:46:22;;;;;;;0.30;0.20;;;;;;;7.01;96.28;99716.56;5014699;28;21041;-72
2022/05/30 02:49:01;;;;;;;0.30;0.20;;;;;;;6.91;96.96;99721.16;5015286;28;20468;-74
2022/05/30 02:51:34;;;;;;;0.30;0.20;;;;;;;7.09;95.62;99718.09;5004445;28;20455;-72
2022/05/30 02:54:13;;;;;;;0.30;0.20;;;;;;;7.12;94.90;99719.78;5015824;28;20455;-73
2022/05/30 02:56:43;;;;;;;0.30;0.20;;;;;;;7.32;95.97;99717.53;5015630;28;20444;-73
2022/05/30 02:59:15;;;;;;;0.30;0.20;;;;;;;7.04;94.62;99714.69;5014991;28;20444;-73
2022/05/30 03:01:52;;;;;;;0.67;0.67;;;;;;;6.86;95.50;99725.69;5015754;28;20943;-73
2022/05/30 03:04:35;;;;;;;0.30;0.20;;;;;;;6.80;95.46;99726.69;5015426;28;20459;-73
2022/05/30 03:07:02;;;;;;;0.30;0.20;;;;;;;6.78;95.23;99730.28;4997986;28;20448;-72
2022/05/30 03:09:31;;;;;;;0.30;0.20;;;;;;;6.96;95.52;99726.34;5015401;28;20523;-73
2022/05/30 03:11:59;;;;;;;0.30;0.20;;;;;;;6.92;95.25;99725.56;5014358;28;20504;-72
2022/05/30 03:14:33;;;;;;;0.30;0.20;;;;;;;6.69;96.55;99723.41;5015227;28;20452;-72
2022/05/30 03:17:12;;;;;;;0.30;0.20;;;;;;;6.94;95.65;99728.16;5015330;28;20480;-73
2022/05/30 03:19:54;;;;;;;0.30;0.20;;;;;;;6.90;94.52;99730.00;5015046;28;20499;-74
2022/05/30 03:22:25;;;;;;;0.37;0.30;;;;;;;6.88;95.95;99726.53;5015197;28;20532;-72
2022/05/30 03:24:54;;;;;;;0.30;0.20;;;;;;;6.94;95.55;99736.94;4996912;28;20531;-73
2022/05/30 03:27:23;;;;;;;0.30;0.20;;;;;;;6.79;94.95;99737.28;4999139;28;20917;-72
2022/05/30 03:29:52;;;;;;;0.30;0.20;;;;;;;7.13;94.37;99738.28;5014716;28;20452;-72
2022/05/30 03:32:23;;;;;;;0.30;0.20;;;;;;;6.90;94.84;99739.69;4997000;28;20850;-72
2022/05/30 03:34:52;;;;;;;0.30;0.20;;;;;;;6.82;95.39;99737.22;5014352;28;20949;-73
2022/05/30 03:37:27;;;;;;;0.30;0.20;;;;;;;7.06;94.82;99741.94;5015100;28;20510;-73
2022/05/30 03:40:02;;;;;;;0.50;0.50;;;;;;;6.96;94.42;99745.69;5002048;28;20444;-72
2022/05/30 03:42:37;;;;;;;0.30;0.20;;;;;;;6.87;95.36;99745.06;5014645;28;21024;-72
2022/05/30 03:45:08;;;;;;;0.30;0.20;;;;;;;6.96;96.00;99742.19;5014352;28;20850;-73
2022/05/30 03:47:51;;;;;;;0.30;0.20;;;;;;;6.80;95.71;99749.59;5014877;28;20441;-72
2022/05/30 03:50:25;;;;;;;0.30;0.23;;;;;;;6.75;95.99;99754.13;5014160;28;20456;-73
2022/05/30 03:53:05;;;;;;;0.30;0.20;;;;;;;6.75;98.53;99749.72;5014519;28;20500;-73
2022/05/30 03:55:43;;;;;;;0.30;0.20;;;;;;;6.83;97.58;99750.38;5014465;28;20448;-73
2022/05/30 03:58:16;;;;;;;0.30;0.20;;;;;;;6.90;98.46;99755.56;5013894;28;20531;-73
2022/05/30 04:00:44;;;;;;;0.40;0.33;;;;;;;7.13;98.48;99753.28;4996763;28;20453;-72
2022/05/30 04:03:13;;;;;;;0.30;0.20;;;;;;;7.01;98.38;99756.19;5014018;28;20814;-72
2022/05/30 04:05:46;;;;;;;0.30;0.20;;;;;;;7.18;98.15;99755.78;5013922;28;20444;-73
2022/05/30 04:08:19;;;;;;;0.30;0.20;;;;;;;7.22;100.00;99757.44;5014370;28;20808;-72
2022/05/30 04:10:54;;;;;;;0.30;0.20;;;;;;;7.29;99.07;99754.63;5014258;28;20444;-72
2022/05/30 04:13:47;;;;;;;0.30;0.20;;;;;;;7.32;98.36;99765.13;5013895;28;20472;-72
2022/05/30 04:16:18;;;;;;;0.30;0.20;;;;;;;7.48;98.38;99772.69;5006856;28;20449;-72
2022/05/30 04:18:54;;;;;;;0.30;0.20;;;;;;;7.46;98.29;99770.09;5001046;28;20460;-72
2022/05/30 04:21:35;;;;;;;0.30;0.20;;;;;;;7.54;99.67;99760.19;5014007;28;20520;-72
2022/05/30 04:24:04;;;;;;;0.30;0.20;;;;;;;7.59;100.00;99773.31;4996285;28;20518;-73
2022/05/30 04:27:08;;;;;;;0.30;0.20;;;;;;;7.49;100.00;99769.13;5013386;28;20535;-72
2022/05/30 04:29:35;;;;;;;0.30;0.20;;;;;;;7.66;100.00;99767.81;4996553;28;20448;-74
2022/05/30 04:32:07;;;;;;;0.30;0.20;;;;;;;8.45;99.03;99770.13;4996821;28;20844;-73
2022/05/30 04:35:06;;;;;;;0.30;0.20;;;;;;;9.24;94.83;99773.97;4995401;28;20452;-73
2022/05/30 04:37:36;;;;;;;0.30;0.20;;;;;;;9.85;91.41;99774.63;5012709;28;20536;-74
2022/05/30 04:40:12;;;;;;;0.30;0.20;;;;;;;10.16;89.47;99774.44;5012175;28;20451;-74
2022/05/30 04:42:44;;;;;;;0.30;0.20;;;;;;;10.68;87.87;99778.75;4994986;28;20496;-74
2022/05/30 04:45:18;;;;;;;0.30;0.20;;;;;;;11.16;86.08;99775.16;5012205;28;20452;-74
2022/05/30 04:47:54;;;;;;;0.50;0.40;;;;;;;11.31;84.53;99777.22;5012086;28;20456;-73
2022/05/30 04:50:29;;;;;;;0.30;0.20;;;;;;;11.78;83.44;99782.38;5012347;28;20452;-74
2022/05/30 04:52:58;;;;;;;0.30;0.20;;;;;;;11.99;82.37;99772.66;5012156;28;20464;-74
2022/05/30 04:55:27;;;;;;;0.30;0.20;;;;;;;12.23;81.40;99781.41;4994543;28;21020;-74
2022/05/30 04:57:59;;;;;;;0.30;0.20;;;;;;;12.27;81.30;99772.34;4994361;28;20857;-74
2022/05/30 05:00:32;;;;;;;0.40;0.30;;;;;;;12.74;79.61;99776.41;5014747;28;20964;-74
2022/05/30 05:03:28;;;;;;;0.40;0.30;;;;;;;12.59;80.35;99781.56;5000793;28;20495;-74
2022/05/30 05:06:07;;;;;;;0.53;0.50;;;;;;;12.98;78.73;99779.75;5001995;28;20946;-74
2022/05/30 05:09:10;;;;;;;0.70;0.40;;;;;;;12.97;79.29;99785.16;5015320;28;20510;-74
2022/05/30 05:11:39;;;;;;;0.30;0.20;;;;;;;13.08;77.87;99782.00;5015311;28;20479;-75
2022/05/30 05:14:08;;;;;;;0.40;0.40;;;;;;;13.30;76.90;99785.41;5015044;28;20834;-74
2022/05/30 05:16:38;;;;;;;0.37;0.30;;;;;;;13.01;78.00;99781.41;5015043;28;20495;-74
2022/05/30 05:19:23;;;;;;;0.30;0.20;;;;;;;13.46;77.58;99785.53;5013543;28;20523;-74
2022/05/30 05:21:50;;;;;;;2.80;2.10;;;;;;;13.59;77.09;99794.69;5015246;28;21005;-74
2022/05/30 05:24:30;;;;;;;0.30;0.20;;;;;;;13.78;76.38;99792.81;5015299;28;20453;-74
2022/05/30 05:27:01;;;;;;;1.27;1.27;;;;;;;13.76;77.00;99800.06;5014662;28;20483;-74
2022/05/30 05:29:30;;;;;;;0.40;0.40;;;;;;;14.10;75.72;99803.69;4997958;28;20510;-74
2022/05/30 05:32:07;;;;;;;;;;;;;;;;;;;;;
2022/05/30 05:34:44;;;;;;;0.50;0.40;;;;;;;14.57;73.46;99803.09;5014332;28;20880;-74
2022/05/30 05:37:19;;;;;;;0.30;0.20;;;;;;;14.46;74.41;99800.97;5015055;28;20449;-74
2022/05/30 05:39:50;;;;;;;0.30;0.20;;;;;;;14.86;73.22;99805.06;5014877;28;20950;-74
2022/05/30 05:42:22;;;;;;;0.60;0.60;;;;;;;14.73;73.29;99804.00;5015006;28;20578;-74
2022/05/30 05:45:01;;;;;;;0.30;0.20;;;;;;;15.03;72.77;99804.16;5007297;28;20453;-75
2022/05/30 05:47:28;;;;;;;0.40;0.20;;;;;;;15.41;72.63;99797.53;5014682;28;20452;-74
2022/05/30 05:49:59;;;;;;;0.50;0.47;;;;;;;15.32;71.55;99799.84;5014606;28;20453;-74
2022/05/30 05:52:30;;;;;;;0.30;0.20;;;;;;;14.70;73.86;99796.16;4997469;28;20500;-74
2022/05/30 05:55:10;;;;;;;0.37;0.20;;;;;;;15.04;73.61;99804.06;4997737;28;20969;-75
2022/05/30 05:57:38;;;;;;;0.40;0.30;;;;;;;14.95;73.73;99793.88;4997247;28;20452;-75
2022/05/30 06:00:08;;;;;;;0.40;0.20;;;;;;;15.26;73.42;99798.41;5014609;28;20492;-74
2022/05/30 06:02:45;;;;;;;0.80;0.80;;;;;;;15.14;73.59;99796.41;5014081;28;20543;-75
2022/05/30 06:05:14;;;;;;;0.47;0.40;;;;;;;15.92;71.85;99795.53;5014504;28;20428;-75
2022/05/30 06:07:47;;;;;;;1.27;1.17;;;;;;;15.66;71.91;99798.88;5014407;28;20453;-75
2022/05/30 06:10:21;;;;;;;0.60;0.60;;;;;;;15.63;72.48;99794.56;5014119;28;20449;-74
2022/05/30 06:13:00;;;;;;;0.70;0.70;;;;;;;15.27;73.84;99799.25;5014064;28;20472;-75
2022/05/30 06:15:30;;;;;;;0.83;0.83;;;;;;;15.95;72.16;99797.16;5014095;28;20456;-75
2022/05/30 06:18:02;;;;;;;0.40;0.40;;;;;;;15.97;70.71;99797.94;5014303;28;20973;-75
2022/05/30 06:20:34;;;;;;;0.40;0.20;;;;;;;15.88;71.57;99791.28;4985499;28;20527;-75
2022/05/30 06:23:05;;;;;;;0.30;0.20;;;;;;;15.81;72.09;99797.13;4997102;28;20496;-75
2022/05/30 06:25:36;;;;;;;1.60;1.50;;;;;;;15.97;71.20;99796.13;5013255;28;20496;-75
2022/05/30 06:28:08;;;;;;;0.50;0.40;;;;;;;16.12;71.42;99794.34;5013869;28;20468;-75
2022/05/30 06:30:43;;;;;;;0.40;0.30;;;;;;;16.13;71.50;99805.94;5014076;28;20456;-75
2022/05/30 06:33:18;;;;;;;0.40;0.30;;;;;;;16.42;69.85;99796.16;5013747;28;20531;-75
2022/05/30 06:35:55;;;;;;;0.40;0.30;;;;;;;15.97;71.88;99801.47;4996521;28;20453;-75
2022/05/30 06:38:31;;;;;;;0.40;0.20;;;;;;;16.54;69.72;99801.63;5003529;28;21004;-78
2022/05/30 06:41:20;;;;;;;0.70;0.40;;;;;;;16.73;70.18;99804.09;5000867;28;20448;-78
2022/05/30 06:43:56;;;;;;;0.50;0.47;;;;;;;17.04;69.31;99794.13;5015711;28;20499;-78
2022/05/30 06:46:25;;;;;;;0.40;0.20;;;;;;;16.64;70.26;99801.09;5015534;28;20449;-77
2022/05/30 06:49:03;;;;;;;0.37;0.20;;;;;;;16.77;68.99;99804.78;5014714;28;20456;-78
2022/05/30 06:51:36;;;;;;;0.40;0.30;;;;;;;17.11;68.76;99808.88;4998090;28;20863;-77
2022/05/30 06:54:13;;;;;;;0.53;0.50;;;;;;;16.39;70.92;99807.94;4998247;28;20912;-78
2022/05/30 06:59:40;;;;;;;0.50;0.40;;;;;;;15.79;72.48;99809.75;5015801;28;20437;-78
2022/05/30 07:02:16;;;;;;;0.40;0.40;;;;;;;16.26;71.64;99817.66;5014890;28;20496;-78
2022/05/30 07:04:44;;;;;;;0.40;0.30;;;;;;;16.23;72.76;99813.34;4998188;28;20457;-78
2022/05/30 07:07:16;;;;;;;0.40;0.20;;;;;;;15.66;74.15;99817.63;5015437;28;20457;-78
2022/05/30 07:09:55;;;;;;;0.80;0.80;;;;;;;15.60;73.32;99820.63;5015465;28;20475;-77
2022/05/30 07:12:26;;;;;;;4.77;0.70;;;;;;;15.63;75.02;99817.81;5014806;28;20473;-78
2022/05/30 07:15:04;;;;;;;0.40;0.23;;;;;;;15.50;74.68;99820.28;4993234;28;20515;-77
2022/05/30 07:17:33;;;;;;;0.37;0.20;;;;;;;16.05;73.56;99817.13;4986136;28;20510;-77
2022/05/30 07:20:03;;;;;;;0.40;0.30;;;;;;;15.67;74.80;99817.53;5014983;28;20456;-78
2022/05/30 07:22:39;;;;;;;0.40;0.20;;;;;;;15.74;73.96;99820.69;5014331;28;20941;-78
2022/05/30 07:25:11;;;;;;;0.63;0.57;;;;;;;15.77;73.88;99812.50;4997438;28;20464;-78
2022/05/30 07:27:41;;;;;;;0.40;0.37;;;;;;;15.43;75.60;99812.66;5014424;28;20491;-77
2022/05/30 07:30:10;;;;;;;0.40;0.27;;;;;;;15.63;75.41;99823.16;5014251;28;20474;-77
2022/05/30 07:32:52;;;;;;;0.30;0.20;;;;;;;15.66;74.32;99818.47;5014041;28;21047;-78
2022/05/30 07:35:21;;;;;;;0.50;0.50;;;;;;;15.55;74.17;99818.19;5003509;28;20555;-78
2022/05/30 07:37:49;;;;;;;0.40;0.20;;;;;;;15.38;74.42;99827.19;5014525;28;20448;-77
2022/05/30 07:40:23;;;;;;;0.30;0.20;;;;;;;15.48;74.40;99830.19;4997334;28;20445;-77
2022/05/30 07:43:06;;;;;;;0.40;0.20;;;;;;;16.43;71.51;99819.34;5014662;28;20978;-78
2022/05/30 07:45:53;;;;;;;;;;;;;;;;;;;;;
2022/05/30 07:48:28;;;;;;;0.40;0.20;;;;;;;15.96;72.96;99831.06;5014097;28;20815;-77
2022/05/30 07:51:03;;;;;;;0.40;0.30;;;;;;;16.19;72.57;99827.91;4996736;28;20560;-77
2022/05/30 07:53:30;;;;;;;0.40;0.30;;;;;;;16.36;70.76;99828.72;5013572;28;20519;-77
2022/05/30 07:56:00;;;;;;;0.30;0.20;;;;;;;16.95;66.44;99822.41;4996099;28;20479;-78
2022/05/30 07:58:37;;;;;;;0.40;0.20;;;;;;;16.88;66.42;99816.56;5014333;28;20538;-77
2022/05/30 08:01:14;;;;;;;0.37;0.20;;;;;;;16.82;65.98;99825.00;5000907;28;20449;-77
2022/05/30 08:03:50;;;;;;;0.33;0.20;;;;;;;16.57;63.96;99822.03;5013883;28;20499;-78
2022/05/30 08:06:24;;;;;;;0.40;0.20;;;;;;;16.33;65.10;99827.09;5013792;28;20448;-77
2022/05/30 08:08:51;;;;;;;0.30;0.20;;;;;;;16.38;63.53;99824.97;5013574;28;20475;-78
2022/05/30 08:11:24;;;;;;;0.30;0.20;;;;;;;16.28;63.71;99824.66;4996222;28;20452;-78
2022/05/30 08:13:52;;;;;;;0.30;0.20;;;;;;;16.08;65.99;99830.34;5012692;28;20448;-77
2022/05/30 08:16:25;;;;;;;0.40;0.40;;;;;;;15.83;65.71;99830.91;5013649;28;20464;-78
2022/05/30 08:19:25;;;;;;;0.30;0.20;;;;;;;15.81;65.54;99826.59;4998861;28;20511;-77
2022/05/30 08:22:14;;;;;;;0.30;0.20;;;;;;;16.00;61.78;99825.44;4990256;28;20493;-77
2022/05/30 08:24:50;;;;;;;0.30;0.20;;;;;;;15.50;63.40;99830.13;5013151;28;20483;-77
2022/05/30 08:27:28;;;;;;;0.30;0.20;;;;;;;15.91;62.49;99835.84;5013115;28;20815;-77
2022/05/30 08:30:09;;;;;;;0.30;0.20;;;;;;;16.00;60.54;99838.81;5012997;28;20455;-77
2022/05/30 08:32:41;;;;;;;0.40;0.20;;;;;;;15.94;61.90;99839.19;5012369;28;20465;-77
2022/05/30 08:35:13;;;;;;;0.30;0.20;;;;;;;16.05;63.30;99841.25;5015665;28;20436;-77
2022/05/30 08:37:47;;;;;;;0.30;0.20;;;;;;;15.66;64.09;99845.28;5016853;28;20436;-77
2022/05/30 08:43:28;;;;;;;0.30;0.20;;;;;;;15.51;65.29;99848.78;5015765;28;20492;-77
2022/05/30 08:46:14;;;;;;;0.30;0.20;;;;;;;15.83;65.91;99849.66;5000491;28;20506;-78
2022/05/30 08:49:14;;;;;;;0.30;0.20;;;;;;;16.08;65.62;99845.56;5000189;28;20453;-77
2022/05/30 08:52:16;;;;;;;0.30;0.20;;;;;;;15.75;66.07;99846.56;5007065;28;20465;-78
2022/05/30 08:55:01;;;;;;;0.30;0.20;;;;;;;15.54;66.09;99861.16;5016769;28;20449;-77
2022/05/30 08:57:54;;;;;;;0.30;0.20;;;;;;;15.25;67.90;99850.22;5016714;28;20433;-77
2022/05/30 09:00:41;;;;;;;0.30;0.20;;;;;;;15.43;67.64;99856.38;4994693;28;20810;-78
2022/05/30 09:03:22;;;;;;;0.40;0.37;;;;;;;15.57;68.67;99844.88;4998915;28;20487;-78
2022/05/30 09:06:08;;;;;;;0.80;0.50;;;;;;;15.48;68.41;99848.06;5016501;28;20567;-78
2022/05/30 09:09:02;;;;;;;0.30;0.20;;;;;;;15.42;68.77;99857.31;5016578;28;20448;-77
2022/05/30 09:11:29;;;;;;;0.30;0.20;;;;;;;15.40;69.23;99853.88;4998978;28;20519;-77
2022/05/30 09:14:12;;;;;;;0.30;0.20;;;;;;;15.16;69.56;99855.22;4999260;28;20453;-78
2022/05/30 09:16:49;;;;;;;0.30;0.20;;;;;;;14.90;70.87;99854.81;5016463;28;20525;-77
2022/05/30 09:19:30;;;;;;;0.40;0.30;;;;;;;15.15;70.47;99856.16;4999075;28;20480;-77
2022/05/30 09:22:07;;;;;;;0.30;0.20;;;;;;;15.19;70.10;99847.00;5003151;28;20465;-77
2022/05/30 09:24:41;;;;;;;0.30;0.20;;;;;;;15.49;68.28;99861.41;5015537;28;20456;-77
2022/05/30 09:27:20;;;;;;;0.30;0.30;;;;;;;15.39;69.06;99849.47;5016295;28;20448;-77
2022/05/30 09:29:54;;;;;;;0.30;0.20;;;;;;;15.44;68.30;99846.53;5016349;28;20452;-78
2022/05/30 09:32:37;;;;;;;0.30;0.20;;;;;;;15.31;66.73;99855.22;5016255;28;20468;-77
2022/05/30 09:35:22;;;;;;;0.30;0.20;;;;;;;15.53;66.67;99854.06;5016318;28;20444;-77
2022/05/30 09:38:16;;;;;;;0.40;0.20;;;;;;;15.41;66.38;99852.94;5015985;28;20942;-77
2022/05/30 09:41:06;;;;;;;0.30;0.20;;;;;;;15.60;66.17;99850.97;5016331;28;20483;-77
2022/05/30 09:43:47;;;;;;;0.80;0.77;;;;;;;16.00;63.66;99849.56;4998077;28;20653;-77
2022/05/30 09:46:34;;;;;;;0.30;0.20;;;;;;;16.75;61.93;99849.63;5015372;28;20459;-77
2022/05/30 09:49:19;;;;;;;0.30;0.20;;;;;;;16.37;63.47;99852.78;4999126;28;20456;-77
2022/05/30 09:52:00;;;;;;;0.30;0.20;;;;;;;16.41;63.61;99848.06;5015360;28;20476;-77
2022/05/30 09:54:35;;;;;;;0.30;0.20;;;;;;;16.49;61.81;99846.69;5015586;28;20460;-77
2022/05/30 09:57:23;;;;;;;0.30;0.20;;;;;;;16.94;61.11;99852.03;5015540;28;20496;-77
2022/05/30 10:00:23;;;;;;;3.23;1.20;;;;;;;17.34;60.99;99850.41;5005608;28;20440;-77
2022/05/30 10:03:07;;;;;;;15.80;1.33;;;;;;;16.98;59.42;99834.78;5014784;28;20994;-77
2022/05/30 10:05:42;;;;;;;0.33;0.20;;;;;;;16.92;59.54;99840.53;5015391;28;20897;-77
2022/05/30 10:08:21;;;;;;;9.80;1.50;;;;;;;17.34;59.00;99835.16;4998204;28;20452;-78
2022/05/30 10:10:56;;;;;;;0.30;0.20;;;;;;;17.06;58.88;99844.09;4987103;28;20507;-77
2022/05/30 10:13:40;;;;;;;0.40;0.20;;;;;;;17.10;58.22;99847.44;5015550;28;20535;-78
2022/05/30 10:16:30;;;;;;;0.40;0.20;;;;;;;17.28;60.37;99840.94;4992495;28;20524;-78
2022/05/30 10:19:12;;;;;;;0.73;0.73;;;;;;;17.15;59.33;99843.53;4998585;28;20463;-77
2022/05/30 10:28:36;;;;;;;0.40;0.20;;;;;;;17.02;61.88;99853.31;5005259;28;20479;-78
2022/05/30 10:31:21;;;;;;;0.30;0.20;;;;;;;16.88;66.19;99848.78;5015441;28;20769;-78
2022/05/30 10:34:27;;;;;;;0.40;0.40;;;;;;;16.57;63.77;99854.25;5015640;28;20997;-78
2022/05/30 10:37:15;;;;;;;0.30;0.20;;;;;;;16.44;66.48;99855.94;4986937;28;20877;-78
2022/05/30 10:40:40;;;;;;;;;;;;;;;;;;;;;
2022/05/30 10:43:26;;;;;;;0.30;0.30;;;;;;;16.35;64.35;99867.22;5011755;28;20575;-77
2022/05/30 10:46:06;;;;;;;0.30;0.20;;;;;;;16.26;67.05;99865.94;5015096;28;20464;-77
2022/05/30 10:48:38;;;;;;;0.30;0.20;;;;;;;16.56;68.56;99874.00;5014976;28;20472;-77
2022/05/30 10:51:10;;;;;;;0.40;0.20;;;;;;;16.41;67.67;99872.22;4997766;28;20456;-77
2022/05/30 10:54:00;;;;;;;0.60;0.57;;;;;;;16.39;70.53;99877.69;5014452;28;20472;-77
2022/05/30 10:56:40;;;;;;;0.40;0.20;;;;;;;15.82;70.06;99879.25;4995789;28;20496;-77
2022/05/30 10:59:32;;;;;;;0.30;0.20;;;;;;;16.10;77.88;99881.22;5013836;28;20445;-77
2022/05/30 11:02:27;;;;;;;0.30;0.20;;;;;;;15.75;79.71;99877.84;5014004;28;20468;-77
2022/05/30 11:05:06;;;;;;;9.60;0.97;;;;;;;15.60;81.72;99882.25;5013761;28;20527;-77
2022/05/30 11:07:50;;;;;;;0.30;0.20;;;;;;;15.60;75.36;99880.44;5013882;28;20452;-77
2022/05/30 11:10:34;;;;;;;0.40;0.40;;;;;;;15.65;77.89;99880.19;4996711;28;20452;-77
2022/05/30 11:13:48;;;;;;;0.30;0.20;;;;;;;15.90;75.35;99885.03;5013733;28;20469;-77
2022/05/30 11:16:39;;;;;;;1.13;1.13;;;;;;;15.74;73.50;99892.19;4996660;28;20531;-77
2022/05/30 11:19:13;;;;;;;0.30;0.20;;;;;;;15.96;78.91;99893.59;4985273;28;20879;-77
2022/05/30 11:22:08;;;;;;;0.30;0.20;;;;;;;15.86;72.35;99895.06;4997174;28;20536;-77
2022/05/30 11:24:40;;;;;;;0.30;0.20;;;;;;;16.10;76.00;99884.75;4997038;28;20908;-77
2022/05/30 11:27:36;;;;;;;0.30;0.20;;;;;;;16.22;70.03;99896.59;5013600;28;20460;-77
2022/05/30 11:30:28;;;;;;;0.30;0.20;;;;;;;16.62;69.96;99887.06;4996695;28;20461;-78
2022/05/30 11:33:21;;;;;;;0.30;0.20;;;;;;;16.26;76.08;99887.41;5006686;28;20473;-77
2022/05/30 11:36:31;;;;;;;0.60;0.57;;;;;;;16.16;73.29;99887.06;4996892;28;20460;-77
2022/05/30 11:39:06;;;;;;;0.40;0.20;;;;;;;16.76;74.20;99878.22;4986682;28;20480;-77
2022/05/30 11:41:44;;;;;;;0.30;0.20;;;;;;;17.00;73.49;99884.78;4996307;28;20515;-77
2022/05/30 11:44:55;;;;;;;0.30;0.20;;;;;;;17.34;64.67;99878.13;4996338;28;20827;-77
2022/05/30 11:47:51;;;;;;;0.37;0.20;;;;;;;17.66;62.23;99886.84;4987266;28;20504;-77
2022/05/30 11:50:38;;;;;;;0.30;0.20;;;;;;;17.57;59.78;99876.69;5014328;28;20456;-77
2022/05/30 11:53:30;;;;;;;0.40;0.20;;;;;;;17.66;61.16;99877.91;5001153;28;20494;-78
2022/05/30 11:56:13;;;;;;;0.40;0.30;;;;;;;17.27;57.83;99881.28;4996074;28;20946;-77
2022/05/30 11:58:50;;;;;;;0.30;0.20;;;;;;;17.18;59.47;99872.88;5009590;28;20448;-77
2022/05/30 12:01:23;;;;;;;0.40;0.20;;;;;;;17.76;59.75;99871.00;5005037;28;20533;-78
2022/05/30 12:04:21;;;;;;;0.40;0.20;;;;;;;18.26;60.80;99867.69;5013874;28;20487;-77
2022/05/30 12:07:11;;;;;;;0.40;0.20;;;;;;;18.45;58.65;99869.97;4996633;28;20511;-77
2022/05/30 12:10:15;;;;;;;0.40;0.20;;;;;;;18.22;56.03;99865.28;4996740;28;20448;-78
2022/05/30 12:13:01;;;;;;;0.40;0.20;;;;;;;18.37;54.93;99863.41;4985112;28;20887;-77
2022/05/30 12:15:57;;;;;;;0.40;0.20;;;;;;;17.56;55.85;99858.84;5013133;28;20483;-77
2022/05/30 12:24:41;;;;;;;0.40;0.20;;;;;;;18.82;51.48;99867.50;5013625;28;20499;-78
2022/05/30 12:27:28;;;;;;;0.40;0.20;;;;;;;18.05;51.32;99861.03;4998721;28;20503;-78
2022/05/30 12:30:02;;;;;;;0.40;0.20;;;;;;;17.69;50.30;99862.50;4996719;28;20938;-77
2022/05/30 12:32:44;;;;;;;0.40;0.20;;;;;;;17.97;50.47;99861.56;5013426;28;20495;-78
2022/05/30 12:35:27;;;;;;;0.40;0.20;;;;;;;18.38;48.41;99863.31;5001669;28;20985;-78
2022/05/30 12:37:59;;;;;;;0.40;0.33;;;;;;;18.49;49.14;99859.88;5013246;28;20444;-75
2022/05/30 12:40:41;;;;;;;0.40;0.30;;;;;;;18.61;51.03;99854.50;4995072;28;20433;-76
2022/05/30 12:43:16;;;;;;;0.40;0.40;;;;;;;18.50;50.73;99865.16;4994648;28;20492;-75
2022/05/30 12:46:25;;;;;;;0.40;0.20;;;;;;;18.50;48.78;99854.41;5011937;28;20527;-75
2022/05/30 12:49:29;;;;;;;0.40;0.20;;;;;;;18.44;47.98;99860.19;4995591;28;20449;-75
2022/05/30 12:52:07;;;;;;;0.40;0.20;;;;;;;18.63;45.78;99851.72;5001950;28;20899;-75
2022/05/30 12:54:43;;;;;;;0.40;0.20;;;;;;;18.58;46.29;99857.41;5011868;28;20480;-75
2022/05/30 12:57:32;;;;;;;0.40;0.20;;;;;;;18.62;47.95;99861.63;5011815;28;20444;-75
2022/05/30 13:00:15;;;;;;;0.40;0.20;;;;;;;18.57;49.10;99854.84;4994964;28;20875;-75
2022/05/30 13:03:03;;;;;;;0.40;0.20;;;;;;;18.96;49.49;99859.31;4994513;28;20889;-76
2022/05/30 13:05:38;;;;;;;0.40;0.20;;;;;;;18.69;47.15;99853.16;4994629;28;21001;-75